Time;durP1;ratioP1;P1;durP2;ratioP2;P2;SDS_P1;SDS_P2;PMS_P1;PMS_P2;Temp;Humidity;BMP_temperature;BMP_pressure;BME280_temperature;BME280_humidity;BME280_pressure;Samples;Min_cycle;Max_cycle;Signal;HPM_P1;HPM_P2
2021/04/19 00:01:06;;;;;;;20.95;10.35;;;11.30;99.90;;;;;;4953431;28;20309;-62
2021/04/19 00:03:31;;;;;;;18.92;10.13;;;11.30;99.90;;;;;;4951952;28;20078;-63
2021/04/19 00:05:58;;;;;;;21.90;11.98;;;11.30;99.90;;;;;;4953233;28;20162;-63
2021/04/19 00:08:23;;;;;;;20.15;11.35;;;11.30;99.90;;;;;;4953220;28;20023;-63
2021/04/19 00:10:49;;;;;;;20.80;11.20;;;11.30;99.90;;;;;;4967823;28;20030;-63
2021/04/19 00:13:15;;;;;;;19.30;11.60;;;11.30;99.90;;;;;;4952210;29;20035;-63
2021/04/19 00:15:41;;;;;;;19.30;11.05;;;11.30;99.90;;;;;;4951956;29;20038;-63
2021/04/19 00:18:07;;;;;;;19.42;11.35;;;11.20;99.90;;;;;;4951978;29;20035;-63
2021/04/19 00:20:33;;;;;;;20.70;11.82;;;11.30;99.90;;;;;;4967819;28;20127;-63
2021/04/19 00:22:58;;;;;;;21.40;11.63;;;11.30;99.90;;;;;;4952971;28;20514;-64
2021/04/19 00:25:24;;;;;;;20.05;12.57;;;11.30;99.90;;;;;;4951830;29;20110;-63
2021/04/19 00:27:50;;;;;;;20.38;11.98;;;11.30;99.90;;;;;;4952972;28;20082;-63
2021/04/19 00:30:17;;;;;;;23.38;13.00;;;11.30;99.90;;;;;;4951785;29;20028;-63
2021/04/19 00:32:42;;;;;;;47.25;32.55;;;11.30;99.90;;;;;;4952745;28;20032;-64
2021/04/19 00:35:09;;;;;;;86.30;65.32;;;11.30;99.90;;;;;;4994829;23;20057;-64
2021/04/19 00:37:34;;;;;;;66.25;49.92;;;11.30;99.90;;;;;;4967124;28;20049;-65
2021/04/19 00:40:04;;;;;;;28.25;18.80;;;11.40;99.90;;;;;;4975269;28;20050;-64
2021/04/19 00:42:29;;;;;;;27.08;15.80;;;11.40;99.90;;;;;;4992724;28;20037;-65
2021/04/19 00:44:55;;;;;;;24.35;14.40;;;11.30;99.90;;;;;;4985773;28;20030;-65
2021/04/19 00:47:21;;;;;;;23.08;13.95;;;11.10;99.90;;;;;;4992853;28;20388;-64
2021/04/19 00:49:46;;;;;;;24.33;13.35;;;11.00;99.90;;;;;;4990720;28;20031;-63
2021/04/19 00:52:13;;;;;;;22.40;12.75;;;10.90;99.90;;;;;;4991504;28;20073;-64
2021/04/19 00:54:38;;;;;;;22.23;13.02;;;10.80;99.90;;;;;;4992852;28;20507;-64
2021/04/19 00:57:04;;;;;;;24.52;13.57;;;10.70;99.90;;;;;;4992870;28;20057;-64
2021/04/19 00:59:30;;;;;;;24.38;14.18;;;10.60;99.90;;;;;;4991420;28;20026;-64
2021/04/19 01:01:58;;;;;;;23.55;14.32;;;10.60;99.90;;;;;;4996736;28;20033;-65
2021/04/19 01:04:24;;;;;;;24.30;14.23;;;10.50;99.90;;;;;;4995561;28;20069;-64
2021/04/19 01:06:51;;;;;;;23.13;14.02;;;10.40;99.90;;;;;;4996950;28;20027;-63
2021/04/19 01:09:17;;;;;;;25.95;13.73;;;10.40;99.90;;;;;;4995300;28;20023;-64
2021/04/19 01:11:42;;;;;;;25.05;14.20;;;10.30;99.90;;;;;;4995339;28;20054;-65
2021/04/19 01:14:08;;;;;;;25.63;14.07;;;10.30;99.90;;;;;;4996696;28;20088;-63
2021/04/19 01:16:34;;;;;;;26.42;15.88;;;10.20;99.90;;;;;;4995508;28;20027;-65
2021/04/19 01:18:59;;;;;;;24.67;14.27;;;10.20;99.90;;;;;;4996555;28;20022;-63
2021/04/19 01:21:25;;;;;;;25.83;15.38;;;10.10;99.90;;;;;;4995261;28;20052;-64
2021/04/19 01:23:50;;;;;;;24.38;14.48;;;10.10;99.90;;;;;;4995414;28;20484;-65
2021/04/19 01:26:16;;;;;;;26.80;15.88;;;10.10;99.90;;;;;;4996279;28;20034;-65
2021/04/19 01:28:42;;;;;;;25.98;15.88;;;10.10;99.90;;;;;;4996189;28;20030;-64
2021/04/19 01:31:07;;;;;;;25.92;16.15;;;10.10;99.90;;;;;;4996665;28;20019;-64
2021/04/19 01:33:33;;;;;;;26.05;15.85;;;10.00;99.90;;;;;;4995017;28;20093;-65
2021/04/19 01:35:59;;;;;;;26.95;16.77;;;10.10;99.90;;;;;;4995243;28;20041;-65
2021/04/19 01:38:25;;;;;;;26.40;15.40;;;10.00;99.90;;;;;;4996243;28;20030;-62
2021/04/19 01:40:55;;;;;;;25.13;15.43;;;10.00;99.90;;;;;;4995918;28;20034;-62
2021/04/19 01:43:22;;;;;;;24.08;15.45;;;10.00;99.90;;;;;;4996377;28;20018;-62
2021/04/19 01:45:49;;;;;;;24.25;14.68;;;10.10;99.90;;;;;;4994722;28;20034;-62
2021/04/19 01:48:15;;;;;;;22.88;13.07;;;10.10;99.90;;;;;;4994971;28;20032;-63
2021/04/19 01:50:41;;;;;;;22.73;12.65;;;10.10;99.90;;;;;;4995978;28;20026;-63
2021/04/19 01:53:07;;;;;;;22.00;12.45;;;10.00;99.90;;;;;;4995140;28;20038;-62
2021/04/19 01:55:34;;;;;;;20.10;11.20;;;10.00;99.90;;;;;;4995887;28;20031;-63
2021/04/19 01:58:04;;;;;;;22.65;12.75;;;9.90;99.90;;;;;;4994684;28;20033;-63
2021/04/19 02:00:31;;;;;;;21.55;12.15;;;9.90;99.90;;;;;;4995815;28;20041;-64
2021/04/19 02:03:28;;;;;;;21.38;12.23;;;9.80;99.90;;;;;;4994582;28;20026;-64
2021/04/19 02:06:13;;;;;;;21.40;12.38;;;9.80;99.90;;;;;;4993248;28;20260;-64
2021/04/19 02:09:00;;;;;;;23.13;13.45;;;9.90;99.90;;;;;;4994260;28;20019;-62
2021/04/19 02:11:52;;;;;;;23.35;13.60;;;9.90;99.90;;;;;;4995425;28;20137;-63
2021/04/19 02:14:42;;;;;;;20.40;12.27;;;9.90;99.90;;;;;;4995695;28;20033;-63
2021/04/19 02:17:40;;;;;;;22.40;13.38;;;9.90;99.90;;;;;;4992382;28;20054;-64
2021/04/19 02:20:08;;;;;;;22.80;13.18;;;9.90;99.90;;;;;;4993945;28;20027;-64
2021/04/19 02:22:40;;;;;;;24.15;14.02;;;9.90;99.90;;;;;;4995373;28;20026;-64
2021/04/19 02:25:31;;;;;;;23.17;13.55;;;9.90;99.90;;;;;;4994061;28;20045;-63
2021/04/19 02:28:01;;;;;;;22.02;12.90;;;9.90;99.90;;;;;;4995490;28;20028;-65
2021/04/19 02:30:35;;;;;;;23.35;13.38;;;9.90;99.90;;;;;;4993879;28;20022;-64
2021/04/19 02:33:03;;;;;;;23.50;13.93;;;9.90;99.90;;;;;;4995078;28;20500;-63
2021/04/19 02:35:32;;;;;;;24.45;14.63;;;9.90;99.90;;;;;;4977771;28;20125;-63
2021/04/19 02:37:58;;;;;;;28.30;16.17;;;9.90;99.90;;;;;;4995044;28;20041;-64
2021/04/19 02:40:27;;;;;;;24.35;16.40;;;9.90;99.90;;;;;;4994802;28;20113;-64
2021/04/19 02:42:55;;;;;;;24.90;15.82;;;10.00;99.90;;;;;;4993886;28;20065;-63
2021/04/19 02:45:22;;;;;;;26.58;17.33;;;9.90;99.90;;;;;;4995049;28;20435;-64
2021/04/19 02:47:49;;;;;;;24.90;15.75;;;9.90;99.90;;;;;;4994051;28;20035;-64
2021/04/19 02:50:18;;;;;;;28.40;17.45;;;9.90;99.90;;;;;;4994575;28;20041;-64
2021/04/19 02:52:45;;;;;;;27.45;16.17;;;9.90;99.90;;;;;;4994917;28;20547;-64
2021/04/19 02:55:13;;;;;;;26.10;16.73;;;9.90;99.90;;;;;;4994962;28;20080;-64
2021/04/19 02:57:46;;;;;;;25.92;16.45;;;9.90;99.90;;;;;;4995329;28;20030;-64
2021/04/19 03:00:13;;;;;;;23.90;15.27;;;10.00;99.90;;;;;;4993234;28;20041;-65
2021/04/19 03:02:41;;;;;;;25.50;15.10;;;10.00;99.90;;;;;;4994793;28;20109;-64
2021/04/19 03:05:08;;;;;;;25.13;14.77;;;10.00;99.90;;;;;;4993330;28;20119;-64
2021/04/19 03:07:42;;;;;;;24.05;14.68;;;10.00;99.90;;;;;;4994624;28;20026;-63
2021/04/19 03:10:12;;;;;;;22.42;14.32;;;10.00;99.90;;;;;;4993161;28;20027;-64
2021/04/19 03:12:40;;;;;;;22.88;14.57;;;10.00;99.90;;;;;;4994565;28;20105;-64
2021/04/19 03:15:08;;;;;;;;;;;10.00;99.90;;;;;;4993849;28;20034;-63
2021/04/19 03:17:34;;;;;;;24.95;13.85;;;10.00;99.90;;;;;;4994523;28;20282;-65
2021/04/19 03:20:08;;;;;;;24.05;14.85;;;10.00;99.90;;;;;;4993980;28;20037;-63
2021/04/19 03:22:40;;;;;;;24.83;15.30;;;9.90;99.90;;;;;;4993989;28;20389;-64
2021/04/19 03:25:08;;;;;;;24.38;16.08;;;9.80;99.90;;;;;;4994033;28;20030;-64
2021/04/19 03:27:36;;;;;;;25.77;16.48;;;9.80;99.90;;;;;;4994219;28;20092;-64
2021/04/19 03:30:03;;;;;;;25.35;16.75;;;9.80;99.90;;;;;;4992961;28;20480;-65
2021/04/19 03:32:35;;;;;;;25.60;17.23;;;9.80;99.90;;;;;;4994015;28;20026;-64
2021/04/19 03:35:08;;;;;;;26.77;16.80;;;9.80;99.90;;;;;;4993874;28;20500;-63
2021/04/19 03:37:36;;;;;;;25.67;16.17;;;9.80;99.90;;;;;;4993999;28;20034;-63
2021/04/19 03:40:09;;;;;;;24.63;15.85;;;9.80;99.90;;;;;;4993906;28;20076;-62
2021/04/19 03:42:38;;;;;;;27.13;17.30;;;9.80;99.90;;;;;;4993047;28;20492;-62
2021/04/19 03:45:07;;;;;;;28.88;17.00;;;9.70;99.90;;;;;;4992584;28;20030;-62
2021/04/19 03:47:35;;;;;;;27.30;17.65;;;9.70;99.90;;;;;;4993855;28;20026;-63
2021/04/19 03:50:03;;;;;;;31.20;17.83;;;9.60;99.90;;;;;;4992444;28;20034;-62
2021/04/19 03:52:33;;;;;;;25.17;15.80;;;9.60;99.90;;;;;;4993777;28;20196;-63
2021/04/19 03:55:01;;;;;;;27.30;16.60;;;9.60;99.90;;;;;;4992894;28;20029;-63
2021/04/19 03:57:28;;;;;;;25.98;15.63;;;9.60;99.90;;;;;;4993869;28;20117;-61
2021/04/19 03:59:58;;;;;;;28.52;16.40;;;9.60;99.90;;;;;;4993660;28;20473;-62
2021/04/19 04:02:25;;;;;;;24.55;15.07;;;9.60;99.90;;;;;;4993658;28;20037;-60
2021/04/19 04:04:51;;;;;;;25.40;15.52;;;9.60;99.90;;;;;;4992331;28;20026;-61
2021/04/19 04:07:18;;;;;;;27.23;16.35;;;9.60;99.90;;;;;;4992269;28;20050;-63
2021/04/19 04:09:45;;;;;;;23.98;14.95;;;9.60;99.90;;;;;;4993247;28;20029;-63
2021/04/19 04:12:11;;;;;;;23.65;15.05;;;;;;;;;;4992221;28;20117;-59
2021/04/19 04:14:37;;;;;;;24.65;14.55;;;;;;;;;;4993560;28;20106;-63
2021/04/19 04:17:04;;;;;;;26.30;16.17;;;;;;;;;;4991957;28;20125;-63
2021/04/19 04:19:30;;;;;;;25.73;16.10;;;;;;;;;;4991899;28;20164;-62
2021/04/19 04:21:56;;;;;;;26.58;15.63;;;;;;;;;;4992255;28;20046;-63
2021/04/19 04:24:22;;;;;;;25.67;15.93;;;;;;;;;;4991794;28;20034;-65
2021/04/19 04:26:49;;;;;;;26.98;16.55;;;;;;;;;;4991642;28;20022;-64
2021/04/19 04:29:15;;;;;;;27.20;16.27;;;;;;;;;;4991638;28;20026;-65
2021/04/19 04:31:41;;;;;;;26.52;17.92;;;;;;;;;;4992875;28;20061;-65
2021/04/19 04:34:07;;;;;;;25.20;16.33;;;;;;;;;;4992562;28;20057;-64
2021/04/19 04:36:33;;;;;;;26.98;17.05;;;;;;;;;;4992523;28;20030;-63
2021/04/19 04:38:59;;;;;;;26.45;17.02;;;;;;;;;;4992868;28;20025;-63
2021/04/19 04:41:25;;;;;;;28.58;17.42;;;;;;;;;;4992783;28;20022;-62
2021/04/19 04:43:53;;;;;;;28.05;17.45;;;;;;;;;;4991346;28;20022;-59
2021/04/19 04:46:38;;;;;;;25.20;16.38;;;;;;;;;;4991191;28;20110;-63
2021/04/19 04:49:07;;;;;;;26.58;15.25;;;;;;;;;;4992444;28;20094;-64
2021/04/19 04:51:33;;;;;;;;;;;;;;;;;;4993521;28;20018;-64
2021/04/19 04:54:02;;;;;;;27.80;15.48;;;;;;;;;;4992691;28;19916;-63
2021/04/19 04:56:31;;;;;;;30.33;16.63;;;;;;;;;;4991204;28;20026;-63
2021/04/19 04:58:57;;;;;;;28.83;15.63;;;;;;;;;;4991903;28;20037;-63
2021/04/19 05:01:26;;;;;;;23.77;14.27;;;;;;;;;;4992423;28;20037;-64
2021/04/19 05:03:52;;;;;;;27.75;13.50;;;;;;;;;;4992341;28;20449;-64
2021/04/19 05:06:19;;;;;;;25.80;13.43;;;;;;;;;;4992166;28;20113;-64
2021/04/19 05:08:46;;;;;;;25.88;13.02;;;;;;;;;;4990822;28;20034;-64
2021/04/19 05:11:12;;;;;;;23.75;14.00;;;;;;;;;;4990906;28;20026;-64
2021/04/19 05:13:38;;;;;;;24.15;13.68;;;;;;;;;;4990949;28;20023;-65
2021/04/19 05:16:04;;;;;;;26.75;13.52;;;9.60;99.90;;;;;;4992072;28;20042;-64
2021/04/19 05:18:30;;;;;;;22.40;12.10;;;8.90;99.90;;;;;;4991354;28;20109;-62
2021/04/19 05:20:56;;;;;;;22.65;12.20;;;8.90;99.90;;;;;;4992350;28;20046;-66
2021/04/19 05:23:22;;;;;;;23.27;12.70;;;9.00;99.90;;;;;;4992292;28;20029;-62
2021/04/19 05:25:48;;;;;;;24.95;13.07;;;9.00;99.90;;;;;;4991301;28;20117;-65
2021/04/19 05:28:15;;;;;;;22.27;12.63;;;9.00;99.90;;;;;;4992211;28;20069;-65
2021/04/19 05:30:42;;;;;;;23.55;13.18;;;9.10;99.90;;;;;;4991700;28;20022;-62
2021/04/19 05:33:08;;;;;;;23.17;13.40;;;9.10;99.90;;;;;;4992031;28;20022;-64
2021/04/19 05:35:35;;;;;;;24.27;13.88;;;9.10;99.90;;;;;;4991860;28;20081;-63
2021/04/19 05:38:03;;;;;;;22.95;12.57;;;9.10;99.90;;;;;;4990829;28;20031;-62
2021/04/19 05:40:32;;;;;;;23.63;13.98;;;9.10;99.90;;;;;;4991816;28;20053;-63
2021/04/19 05:43:00;;;;;;;24.08;12.63;;;9.00;99.90;;;;;;4965334;28;20042;-63
2021/04/19 05:45:27;;;;;;;22.98;13.02;;;9.10;99.90;;;;;;4970735;28;20078;-64
2021/04/19 05:47:53;;;;;;;24.70;13.95;;;9.10;99.90;;;;;;4976281;28;20026;-61
2021/04/19 05:50:23;;;;;;;22.60;12.52;;;9.10;99.90;;;;;;4975713;28;20102;-64
2021/04/19 05:52:51;;;;;;;22.95;13.75;;;9.00;99.90;;;;;;4976367;28;20030;-64
2021/04/19 05:55:21;;;;;;;23.67;13.18;;;9.00;99.90;;;;;;4976069;28;20023;-61
2021/04/19 05:58:08;;;;;;;22.10;12.65;;;9.00;99.90;;;;;;4973130;28;20034;-61
2021/04/19 06:00:39;;;;;;;22.75;12.10;;;9.10;99.90;;;;;;4959092;28;20023;-62
2021/04/19 06:03:12;;;;;;;21.95;11.77;;;9.20;99.90;;;;;;4976047;28;20111;-65
2021/04/19 06:05:43;;;;;;;21.73;11.18;;;9.30;99.90;;;;;;4976010;28;20495;-63
2021/04/19 06:08:18;;;;;;;21.00;11.18;;;9.30;99.90;;;;;;4976267;28;20023;-64
2021/04/19 06:10:51;;;;;;;21.73;12.45;;;9.30;99.90;;;;;;4976332;28;20466;-64
2021/04/19 06:13:19;;;;;;;21.90;12.65;;;9.30;99.90;;;;;;4974085;28;20046;-63
2021/04/19 06:15:47;;;;;;;23.52;13.07;;;9.20;99.90;;;;;;4975520;28;20373;-64
2021/04/19 06:18:13;;;;;;;24.70;13.38;;;9.30;99.90;;;;;;4974251;28;20034;-64
2021/04/19 06:20:39;;;;;;;26.38;14.25;;;9.40;99.90;;;;;;4973816;28;20033;-65
2021/04/19 06:23:06;;;;;;;23.52;13.23;;;9.50;99.90;;;;;;4975248;28;20056;-63
2021/04/19 06:25:32;;;;;;;22.45;12.77;;;9.60;99.90;;;;;;4975622;28;20492;-63
2021/04/19 06:28:05;;;;;;;22.50;12.27;;;9.70;99.90;;;;;;4974781;28;20027;-63
2021/04/19 06:30:42;;;;;;;22.58;12.15;;;9.70;99.90;;;;;;4974660;28;20489;-64
2021/04/19 06:33:15;;;;;;;22.60;11.60;;;9.80;99.90;;;;;;4973578;28;20125;-64
2021/04/19 06:35:41;;;;;;;22.60;11.80;;;9.80;99.90;;;;;;4982590;23;20048;-64
2021/04/19 06:38:07;;;;;;;27.40;13.63;;;9.70;99.90;;;;;;4969243;28;20046;-64
2021/04/19 06:40:37;;;;;;;22.33;12.93;;;9.80;99.90;;;;;;4952629;28;20405;-63
2021/04/19 06:43:04;;;;;;;22.67;12.88;;;9.90;99.90;;;;;;4954119;28;20497;-61
2021/04/19 06:45:31;;;;;;;24.80;12.82;;;9.90;99.90;;;;;;4942864;29;20039;-64
2021/04/19 06:47:58;;;;;;;24.48;13.02;;;10.00;99.90;;;;;;4953084;28;20508;-62
2021/04/19 06:50:24;;;;;;;27.25;13.98;;;10.10;99.90;;;;;;4950028;28;20513;-64
2021/04/19 06:52:50;;;;;;;24.42;12.93;;;10.30;99.90;;;;;;4967759;28;20030;-64
2021/04/19 06:55:18;;;;;;;23.35;12.48;;;10.30;99.90;;;;;;4973708;28;20027;-70
2021/04/19 06:57:52;;;;;;;23.20;12.05;;;;;;;;;;4971272;28;20400;-70
2021/04/19 07:00:19;;;;;;;25.95;13.07;;;;;;;;;;4972033;28;20084;-69
2021/04/19 07:02:50;;;;;;;28.33;13.77;;;;;;;;;;4972462;28;20027;-61
2021/04/19 07:05:20;;;;;;;25.10;13.18;;;10.40;99.90;;;;;;4972939;28;20022;-61
2021/04/19 07:07:51;;;;;;;25.77;13.23;;;11.10;99.90;;;;;;4973557;28;20106;-62
2021/04/19 07:10:17;;;;;;;23.63;13.50;;;11.10;99.90;;;;;;4972607;28;20416;-60
2021/04/19 07:12:44;;;;;;;24.25;14.70;;;11.00;99.90;;;;;;4972655;28;20048;-61
2021/04/19 07:15:12;;;;;;;25.25;15.48;;;11.00;99.90;;;;;;4972707;28;20019;-59
2021/04/19 07:17:39;;;;;;;29.38;16.30;;;11.10;99.90;;;;;;4959690;28;20089;-60
2021/04/19 07:20:05;;;;;;;24.38;15.80;;;;;;;;;;4951834;28;20087;-59
2021/04/19 07:22:33;;;;;;;24.52;15.00;;;;;;;;;;4953288;29;20058;-61
2021/04/19 07:24:59;;;;;;;25.70;16.67;;;;;;;;;;4946742;29;20035;-62
2021/04/19 07:27:26;;;;;;;27.88;17.00;;;;;;;;;;4951362;29;20140;-60
2021/04/19 07:29:52;;;;;;;25.42;16.00;;;;;;;;;;4943030;29;20489;-62
2021/04/19 07:32:18;;;;;;;25.05;15.95;;;;;;;;;;4953221;28;20034;-62
2021/04/19 07:34:57;;;;;;;25.13;15.18;;;;;;;;;;4952798;28;20031;-58
2021/04/19 07:37:23;;;;;;;28.58;16.70;;;;;;;;;;4950793;29;20366;-60
2021/04/19 07:39:48;;;;;;;28.00;17.80;;;11.10;99.90;;;;;;4952078;29;20112;-64
2021/04/19 07:42:17;;;;;;;28.60;18.13;;;11.80;99.90;;;;;;4952784;28;20593;-64
2021/04/19 07:44:49;;;;;;;27.60;19.55;;;11.90;99.90;;;;;;4952943;28;20031;-65
2021/04/19 07:47:25;;;;;;;28.10;18.27;;;;;;;;;;4953043;28;20033;-64
2021/04/19 07:50:09;;;;;;;30.33;19.42;;;;;;;;;;4952322;28;20111;-66
2021/04/19 07:53:00;;;;;;;33.33;18.27;;;11.80;99.90;;;;;;4951768;28;20023;-65
2021/04/19 07:55:30;;;;;;;31.13;18.80;;;12.10;99.90;;;;;;4952556;28;20039;-63
2021/04/19 07:57:57;;;;;;;32.72;19.60;;;12.00;99.90;;;;;;4953189;28;20023;-63
2021/04/19 08:00:29;;;;;;;32.83;20.58;;;12.20;99.90;;;;;;4952316;28;20035;-65
2021/04/19 08:03:15;;;;;;;37.33;20.15;;;12.50;99.90;;;;;;4952818;28;20023;-65
2021/04/19 08:05:51;;;;;;;29.75;19.05;;;12.80;99.90;;;;;;4952779;28;20035;-65
2021/04/19 08:08:18;;;;;;;28.38;19.15;;;13.20;99.90;;;;;;4952843;28;20397;-64
2021/04/19 08:10:46;;;;;;;32.28;18.92;;;13.20;99.90;;;;;;4934566;29;20617;-64
2021/04/19 08:13:12;;;;;;;29.20;18.17;;;13.20;99.90;;;;;;4951477;28;20027;-65
2021/04/19 08:15:40;;;;;;;29.98;17.95;;;13.10;99.90;;;;;;4952716;28;20102;-65
2021/04/19 08:18:13;;;;;;;30.23;18.58;;;13.00;99.90;;;;;;4953156;28;20031;-65
2021/04/19 08:20:50;;;;;;;31.08;19.63;;;13.00;99.90;;;;;;4950579;29;20048;-63
2021/04/19 08:23:16;;;;;;;29.63;19.48;;;;;;;;;;4952367;28;20102;-65
2021/04/19 08:25:48;;;;;;;29.92;19.27;;;13.50;99.90;;;;;;4951827;28;20081;-64
2021/04/19 08:28:28;;;;;;;26.98;18.52;;;13.90;99.90;;;;;;4950949;29;20039;-63
2021/04/19 08:30:58;;;;;;;29.35;18.85;;;13.90;99.90;;;;;;4950640;29;20023;-63
2021/04/19 08:33:24;;;;;;;27.58;18.80;;;13.80;99.90;;;;;;4952490;28;20035;-65
2021/04/19 08:35:52;;;;;;;29.48;19.65;;;14.10;99.90;;;;;;4951918;28;20036;-66
2021/04/19 08:38:21;;;;;;;30.40;19.15;;;14.00;99.90;;;;;;4952338;28;20516;-67
2021/04/19 08:40:50;;;;;;;29.77;20.30;;;13.80;99.90;;;;;;4950731;28;20512;-65
2021/04/19 08:43:20;;;;;;;29.02;19.23;;;14.10;99.90;;;;;;4952803;28;20482;-65
2021/04/19 08:45:48;;;;;;;33.70;19.75;;;14.20;99.90;;;;;;4951698;28;20027;-65
2021/04/19 08:48:14;;;;;;;32.05;20.33;;;14.10;99.90;;;;;;4932959;29;20036;-65
2021/04/19 08:50:42;;;;;;;30.45;19.17;;;14.00;99.90;;;;;;4950434;28;20063;-64
2021/04/19 08:53:10;;;;;;;32.17;19.95;;;14.30;99.90;;;;;;4960102;28;20046;-65
2021/04/19 08:55:36;;;;;;;31.70;21.20;;;14.60;99.90;;;;;;4977732;28;20023;-65
2021/04/19 08:58:09;;;;;;;30.75;20.20;;;14.10;99.90;;;;;;4963106;28;20034;-65
2021/04/19 09:00:37;;;;;;;31.92;20.33;;;13.60;99.90;;;;;;4956555;28;20500;-65
2021/04/19 09:03:03;;;;;;;30.17;20.40;;;14.00;99.90;;;;;;4959174;28;20031;-65
2021/04/19 09:05:29;;;;;;;31.33;20.15;;;14.30;99.90;;;;;;4961532;28;20043;-65
2021/04/19 09:08:06;;;;;;;30.15;19.85;;;;;;;;;;4957553;28;20125;-63
2021/04/19 09:10:50;;;;;;;30.67;20.55;;;;;;;;;;4970167;28;20033;-65
2021/04/19 09:13:35;;;;;;;30.40;21.35;;;;;;;;;;4971306;28;20030;-64
2021/04/19 09:16:21;;;;;;;31.60;20.27;;;14.60;99.90;;;;;;4970164;28;20405;-66
2021/04/19 09:18:56;;;;;;;30.20;21.38;;;14.50;99.90;;;;;;4959711;28;20384;-65
2021/04/19 09:21:37;;;;;;;31.15;20.55;;;14.70;99.90;;;;;;4951276;28;20035;-66
2021/04/19 09:24:10;;;;;;;28.95;20.40;;;14.80;99.90;;;;;;4964501;28;20062;-64
2021/04/19 09:26:53;;;;;;;32.10;20.15;;;14.70;99.90;;;;;;4952704;28;20362;-65
2021/04/19 09:29:24;;;;;;;30.05;20.40;;;14.70;99.90;;;;;;4949662;28;20090;-64
2021/04/19 09:32:17;;;;;;;30.55;20.35;;;14.70;99.90;;;;;;4967020;28;20110;-63
2021/04/19 09:34:49;;;;;;;35.28;21.27;;;14.50;99.90;;;;;;4959877;28;20508;-64
2021/04/19 09:37:43;;;;;;;32.35;21.58;;;14.30;99.90;;;;;;4975009;28;20433;-65
2021/04/19 09:40:21;;;;;;;32.33;20.80;;;14.00;99.90;;;;;;4965803;28;20049;-65
2021/04/19 09:43:05;;;;;;;30.42;20.75;;;13.90;99.90;;;;;;4958148;28;20106;-65
2021/04/19 09:45:47;;;;;;;29.85;21.33;;;14.10;99.90;;;;;;4954259;28;20564;-65
2021/04/19 09:48:28;;;;;;;30.55;21.40;;;14.30;99.90;;;;;;4955317;28;20420;-65
2021/04/19 09:50:56;;;;;;;30.75;20.45;;;14.70;99.90;;;;;;4953376;28;20047;-64
2021/04/19 09:53:22;;;;;;;35.50;22.23;;;15.20;99.90;;;;;;4955247;28;20019;-59
2021/04/19 09:55:49;;;;;;;29.92;20.88;;;15.30;99.90;;;;;;4954872;28;20508;-61
2021/04/19 09:58:16;;;;;;;30.88;21.48;;;15.60;99.90;;;;;;4960479;28;20563;-63
2021/04/19 10:00:46;;;;;;;32.90;22.00;;;15.60;99.90;;;;;;4962363;28;20150;-64
2021/04/19 10:03:11;;;;;;;28.60;20.30;;;15.60;99.90;;;;;;4958451;28;20034;-58
2021/04/19 10:05:40;;;;;;;28.73;19.17;;;15.40;99.90;;;;;;4962414;28;20032;-64
2021/04/19 10:08:08;;;;;;;30.73;19.13;;;15.30;99.90;;;;;;4953858;29;20043;-64
2021/04/19 10:10:36;;;;;;;31.33;21.77;;;15.20;99.90;;;;;;4957404;28;20070;-63
2021/04/19 10:13:02;;;;;;;32.30;20.42;;;15.10;99.90;;;;;;4948805;28;20031;-64
2021/04/19 10:15:27;;;;;;;32.58;22.10;;;15.20;99.90;;;;;;4953500;28;20122;-64
2021/04/19 10:17:53;;;;;;;31.05;21.08;;;15.30;99.90;;;;;;4955423;28;20481;-63
2021/04/19 10:20:25;;;;;;;27.83;17.77;;;;;;;;;;4950270;28;20094;-64
2021/04/19 10:23:09;;;;;;;25.80;16.58;;;;;;;;;;4950486;28;20031;-64
2021/04/19 10:25:46;;;;;;;25.23;16.45;;;;;;;;;;4946652;28;20030;-64
2021/04/19 10:28:11;;;;;;;26.05;17.65;;;;;;;;;;4951015;28;20034;-54
2021/04/19 10:30:38;;;;;;;29.50;18.23;;;;;;;;;;4951470;28;20027;-63
2021/04/19 10:33:04;;;;;;;30.33;19.48;;;;;;;;;;4952411;28;20140;-62
2021/04/19 10:35:35;;;;;;;26.33;16.70;;;;;;;;;;4951269;28;20132;-62
2021/04/19 10:38:01;;;;;;;27.73;18.20;;;;;;;;;;4950051;28;20059;-63
2021/04/19 10:40:27;;;;;;;27.33;19.63;;;;;;;;;;4953501;28;20094;-62
2021/04/19 10:42:54;;;;;;;27.63;18.38;;;;;;;;;;4953208;28;20063;-62
2021/04/19 10:45:20;;;;;;;24.77;17.85;;;;;;;;;;4955768;28;20521;-61
2021/04/19 10:47:46;;;;;;;25.08;17.50;;;;;;;;;;4952559;28;20154;-61
2021/04/19 10:50:12;;;;;;;25.08;18.48;;;;;;;;;;4951876;28;20489;-62
2021/04/19 10:52:39;;;;;;;27.05;18.17;;;;;;;;;;4954299;28;20082;-63
2021/04/19 10:55:09;;;;;;;24.25;18.00;;;;;;;;;;4953997;29;20082;-61
2021/04/19 10:57:36;;;;;;;23.38;17.13;;;;;;;;;;4954197;28;20374;-62
2021/04/19 11:00:04;;;;;;;25.90;19.67;;;;;;;;;;4952113;28;20121;-63
2021/04/19 11:02:31;;;;;;;23.00;17.45;;;;;;;;;;4966047;28;20073;-63
2021/04/19 11:04:58;;;;;;;24.90;19.08;;;;;;;;;;4952411;29;20058;-63
2021/04/19 11:07:25;;;;;;;23.52;17.73;;;;;;;;;;4949881;28;20034;-64
2021/04/19 11:10:10;;;;;;;25.63;18.48;;;;;;;;;;4959123;28;20023;-61
2021/04/19 11:12:36;;;;;;;27.13;19.13;;;;;;;;;;4956277;28;20114;-62
2021/04/19 11:15:09;;;;;;;28.55;20.63;;;;;;;;;;4952185;28;20511;-64
2021/04/19 11:17:35;;;;;;;29.25;21.05;;;;;;;;;;4959113;28;20481;-62
2021/04/19 11:20:17;;;;;;;29.55;20.42;;;15.60;99.90;;;;;;4950838;29;20027;-58
2021/04/19 11:22:43;;;;;;;25.17;19.48;;;;;;;;;;4952480;29;20058;-63
2021/04/19 11:25:14;;;;;;;25.73;19.90;;;;;;;;;;4953708;29;20514;-65
2021/04/19 11:27:40;;;;;;;24.88;18.83;;;;;;;;;;4953583;29;20110;-64
2021/04/19 11:30:27;;;;;;;28.38;18.27;;;;;;;;;;4953319;29;20027;-64
2021/04/19 11:33:06;;;;;;;25.13;19.55;;;;;;;;;;4953653;28;20579;-64
2021/04/19 11:35:40;;;;;;;26.20;19.60;;;;;;;;;;4953354;29;20122;-63
2021/04/19 11:38:07;;;;;;;24.63;19.00;;;;;;;;;;4954159;28;20023;-64
2021/04/19 11:40:35;;;;;;;25.80;20.27;;;;;;;;;;4953415;29;20433;-63
2021/04/19 11:43:16;;;;;;;26.73;20.40;;;;;;;;;;4953472;29;20024;-64
2021/04/19 11:45:42;;;;;;;22.65;18.98;;;;;;;;;;4933973;29;20028;-64
2021/04/19 11:48:16;;;;;;;25.30;19.88;;;18.50;99.90;;;;;;4934707;29;20034;-64
2021/04/19 11:50:42;;;;;;;25.42;21.00;;;23.40;92.50;;;;;;4933954;29;20471;-62
2021/04/19 11:53:08;;;;;;;27.23;21.98;;;;;;;;;;4933416;29;20106;-62
2021/04/19 11:55:35;;;;;;;24.90;20.23;;;;;;;;;;4933950;29;20501;-63
2021/04/19 11:58:01;;;;;;;25.77;21.65;;;;;;;;;;4933715;29;20062;-65
2021/04/19 12:00:27;;;;;;;24.63;20.20;;;;;;;;;;4934094;29;20028;-63
2021/04/19 12:02:53;;;;;;;23.95;20.30;;;;;;;;;;4934323;29;20042;-63
2021/04/19 12:05:20;;;;;;;25.67;20.98;;;;;;;;;;4933848;29;20031;-63
2021/04/19 12:07:46;;;;;;;25.13;20.23;;;;;;;;;;4932475;29;20024;-65
2021/04/19 12:10:12;;;;;;;26.13;21.80;;;;;;;;;;4933557;29;20091;-65
2021/04/19 12:12:38;;;;;;;25.73;21.08;;;;;;;;;;4934031;29;20027;-65
2021/04/19 12:15:06;;;;;;;28.42;20.70;;;;;;;;;;4595096;28;10000290;-65
2021/04/19 12:17:32;;;;;;;25.17;19.25;;;;;;;;;;4940776;28;20027;-64
2021/04/19 12:19:58;;;;;;;24.33;19.65;;;;;;;;;;4950348;28;20708;-63
2021/04/19 12:22:24;;;;;;;25.25;19.63;;;;;;;;;;4951472;28;20026;-63
2021/04/19 12:24:50;;;;;;;24.65;19.88;;;;;;;;;;4946781;28;20024;-63
2021/04/19 12:27:15;;;;;;;25.77;19.92;;;22.90;90.10;;;;;;4950909;28;20028;-64
2021/04/19 12:29:41;;;;;;;24.33;20.20;;;19.60;96.10;;;;;;4955663;28;20405;-62
2021/04/19 12:32:07;;;;;;;27.45;20.73;;;;;;;;;;4944947;28;20030;-64
2021/04/19 12:34:33;;;;;;;25.73;21.13;;;;;;;;;;4954510;28;20059;-63
2021/04/19 12:36:59;;;;;;;23.33;20.55;;;;;;;;;;4949399;28;20023;-63
2021/04/19 12:39:26;;;;;;;25.08;21.25;;;;;;;;;;4945691;28;20024;-63
2021/04/19 12:41:52;;;;;;;25.33;20.73;;;21.00;92.00;;;;;;4947774;28;20023;-63
2021/04/19 12:44:18;;;;;;;26.20;21.08;;;23.40;84.20;;;;;;4947049;29;20053;-63
2021/04/19 12:46:43;;;;;;;24.92;21.17;;;22.80;83.00;;;;;;4948644;29;20051;-64
2021/04/19 12:49:09;;;;;;;26.10;21.52;;;24.60;79.50;;;;;;4598790;28;9999700;-65
2021/04/19 12:51:35;;;;;;;24.05;21.55;;;25.60;75.10;;;;;;4943268;28;20019;-62
2021/04/19 12:54:01;;;;;;;25.20;22.50;;;25.50;72.20;;;;;;4951367;28;20046;-65
2021/04/19 12:56:27;;;;;;;27.35;22.38;;;;;;;;;;4978482;23;20506;-64
2021/04/19 12:58:54;;;;;;;24.40;21.35;;;;;;;;;;4963284;28;20504;-63
2021/04/19 13:01:19;;;;;;;24.77;21.60;;;;;;;;;;4966235;28;20082;-64
2021/04/19 13:03:45;;;;;;;24.20;20.50;;;;;;;;;;4972794;28;20797;-64
2021/04/19 13:06:11;;;;;;;24.55;21.15;;;;;;;;;;4980525;28;20133;-63
2021/04/19 13:08:37;;;;;;;24.60;19.45;;;;;;;;;;4972041;28;20480;-63
2021/04/19 13:11:04;;;;;;;24.70;19.75;;;;;;;;;;4966511;28;20089;-64
2021/04/19 13:13:30;;;;;;;24.40;20.30;;;;;;;;;;4971074;28;20029;-64